Time;durP1;ratioP1;P1;durP2;ratioP2;P2;SDS_P1;SDS_P2;PMS_P1;PMS_P2;Temp;Humidity;BMP_temperature;BMP_pressure;BME280_temperature;BME280_humidity;BME280_pressure;Samples;Min_cycle;Max_cycle;Signal;HPM_P1;HPM_P2
2022/03/01 00:01:28;;;;;;;28.17;15.23;;;;;;;-0.40;100.00;100468.05;1561103;91;21056;-69
2022/03/01 00:03:55;;;;;;;24.90;14.13;;;;;;;-0.42;100.00;100463.30;1581185;91;21115;-69
2022/03/01 00:06:22;;;;;;;26.23;14.43;;;;;;;-0.43;100.00;100462.42;1572094;89;21057;-69
2022/03/01 00:08:49;;;;;;;28.60;15.07;;;;;;;-0.43;100.00;100451.80;1591313;89;21144;-66
2022/03/01 00:11:16;;;;;;;24.47;14.37;;;;;;;-0.42;100.00;100450.86;1613493;89;21543;-70
2022/03/01 00:13:44;;;;;;;25.47;13.60;;;;;;;-0.40;100.00;100452.11;1611496;89;21140;-69
2022/03/01 00:16:13;;;;;;;24.63;12.57;;;;;;;-0.41;100.00;100444.62;1611443;89;21182;-69
2022/03/01 00:18:40;;;;;;;23.23;13.17;;;;;;;-0.41;100.00;100447.27;1611381;89;21057;-68
2022/03/01 00:21:07;;;;;;;23.53;13.87;;;;;;;-0.42;100.00;100454.85;1611904;89;21526;-69
2022/03/01 00:23:34;;;;;;;26.33;13.57;;;;;;;-0.41;100.00;100450.38;1611411;89;21006;-67
2022/03/01 00:26:01;;;;;;;25.50;13.67;;;;;;;-0.39;100.00;100433.87;1590632;89;21588;-70
2022/03/01 00:28:28;;;;;;;23.87;13.37;;;;;;;-0.37;100.00;100432.45;1611571;86;21081;-69
2022/03/01 00:30:57;;;;;;;26.47;14.43;;;;;;;-0.39;100.00;100426.78;1658773;86;21046;-69
2022/03/01 00:33:24;;;;;;;23.17;12.00;;;;;;;-0.38;100.00;100420.98;1658819;86;21038;-69
2022/03/01 00:35:51;;;;;;;26.80;14.07;;;;;;;-0.38;100.00;100410.35;1618515;86;21018;-69
2022/03/01 00:38:19;;;;;;;24.77;13.00;;;;;;;-0.37;100.00;100400.57;1658624;85;21135;-69
2022/03/01 00:40:46;;;;;;;26.60;14.20;;;;;;;-0.38;100.00;100387.77;1640184;86;21102;-69
2022/03/01 00:43:13;;;;;;;25.23;13.87;;;;;;;-0.37;100.00;100380.19;1658657;85;21594;-68
2022/03/01 00:45:40;;;;;;;27.17;14.43;;;;;;;-0.38;100.00;100367.84;1658831;85;21601;-70
2022/03/01 00:48:07;;;;;;;25.83;14.00;;;;;;;-0.40;100.00;100349.81;1640155;86;21429;-69
2022/03/01 00:50:35;;;;;;;25.13;14.30;;;;;;;-0.39;100.00;100356.81;1658521;86;21058;-69
2022/03/01 00:53:02;;;;;;;26.23;14.23;;;;;;;-0.38;100.00;100350.56;1639897;86;21534;-69
2022/03/01 00:55:29;;;;;;;26.73;14.17;;;;;;;-0.37;100.00;100358.94;1639868;86;21078;-70
2022/03/01 00:57:56;;;;;;;25.00;14.13;;;;;;;-0.35;100.00;100361.02;1658688;85;21094;-70
2022/03/01 01:00:23;;;;;;;27.37;14.83;;;;;;;-0.33;100.00;100351.14;1658689;85;21086;-69
2022/03/01 01:02:50;;;;;;;26.73;14.87;;;;;;;-0.32;100.00;100337.38;1658752;86;21087;-70
2022/03/01 01:05:18;;;;;;;25.33;13.83;;;;;;;-0.33;100.00;100325.91;1658637;86;21090;-69
2022/03/01 01:07:45;;;;;;;24.33;13.83;;;;;;;-0.35;100.00;100325.59;1658652;85;21078;-69
2022/03/01 01:10:12;;;;;;;24.97;14.17;;;;;;;-0.37;100.00;100315.54;1639868;86;21034;-70
2022/03/01 01:12:40;;;;;;;26.57;14.70;;;;;;;-0.40;100.00;100314.78;1640200;86;21121;-70
2022/03/01 01:15:07;;;;;;;24.63;13.30;;;;;;;-0.41;100.00;100308.23;1658820;85;21051;-70
2022/03/01 01:17:36;;;;;;;27.30;14.67;;;;;;;-0.41;100.00;100302.92;1614356;86;21527;-69
2022/03/01 01:20:05;;;;;;;26.60;13.90;;;;;;;-0.40;100.00;100292.69;1640086;86;21066;-71
2022/03/01 01:22:41;;;;;;;27.40;15.70;;;;;;;-0.37;100.00;100284.53;1658726;86;21054;-69
2022/03/01 01:25:16;;;;;;;27.90;15.17;;;;;;;-0.36;100.00;100270.77;1640407;86;21583;-69
2022/03/01 01:27:46;;;;;;;28.77;16.10;;;;;;;-0.35;100.00;100264.03;1659006;86;21042;-69
2022/03/01 01:30:22;;;;;;;29.83;16.27;;;;;;;-0.35;100.00;100244.55;1658695;85;21554;-69
2022/03/01 01:32:49;;;;;;;29.70;16.33;;;;;;;-0.35;100.00;100243.23;1658615;86;21082;-69
2022/03/01 01:35:20;;;;;;;28.00;15.80;;;;;;;-0.35;100.00;100237.45;1658725;86;21173;-69
2022/03/01 01:37:48;;;;;;;27.57;15.60;;;;;;;-0.36;100.00;100230.42;1656476;86;21026;-69
2022/03/01 01:40:18;;;;;;;28.20;16.33;;;;;;;-0.37;100.00;100218.11;1648402;86;21013;-70
2022/03/01 01:42:45;;;;;;;29.27;16.10;;;;;;;-0.40;100.00;100200.53;1642569;86;21051;-69
2022/03/01 01:45:12;;;;;;;31.10;16.77;;;;;;;-0.44;100.00;100193.72;1642516;87;21083;-69
2022/03/01 01:47:40;;;;;;;28.23;15.47;;;;;;;-0.47;100.00;100171.33;1642351;87;21127;-69
2022/03/01 01:50:08;;;;;;;27.53;15.03;;;;;;;-0.49;100.00;100164.42;1642608;86;21032;-67
2022/03/01 01:52:35;;;;;;;28.17;15.13;;;;;;;-0.51;100.00;100158.32;1631100;87;21434;-70
2022/03/01 01:55:02;;;;;;;29.27;15.33;;;;;;;-0.54;100.00;100150.58;1642592;87;21044;-69
2022/03/01 01:57:30;;;;;;;30.50;16.87;;;;;;;-0.56;100.00;100155.98;1642295;86;21110;-68
2022/03/01 01:59:57;;;;;;;30.63;16.83;;;;;;;-0.58;100.00;100154.74;1642378;86;21071;-69
2022/03/01 02:02:25;;;;;;;31.27;16.73;;;;;;;-0.55;100.00;100143.05;1632716;86;21075;-70
2022/03/01 02:04:52;;;;;;;30.10;15.53;;;;;;;-0.53;100.00;100127.02;1644293;87;21040;-70
2022/03/01 02:07:19;;;;;;;30.17;15.60;;;;;;;-0.51;100.00;100107.40;1642267;87;21095;-68
2022/03/01 02:09:46;;;;;;;34.10;17.93;;;;;;;-0.50;100.00;100089.65;1631302;87;21063;-69
2022/03/01 02:12:14;;;;;;;53.80;27.47;;;;;;;-0.51;100.00;100070.21;1642304;87;21047;-69
2022/03/01 02:14:47;;;;;;;46.67;22.13;;;;;;;-0.50;100.00;100059.09;1631088;87;21099;-68
2022/03/01 02:17:14;;;;;;;40.43;19.10;;;;;;;-0.50;100.00;100040.50;1642474;87;21068;-70
2022/03/01 02:19:50;;;;;;;45.67;21.57;;;;;;;-0.49;100.00;100015.17;1631161;87;21068;-70
2022/03/01 02:22:18;;;;;;;43.97;21.40;;;;;;;-0.48;100.00;99996.97;1622055;88;21027;-69
2022/03/01 02:24:46;;;;;;;33.03;16.83;;;;;;;-0.47;100.00;99968.10;1621926;87;21095;-68
2022/03/01 02:27:13;;;;;;;34.53;17.07;;;;;;;-0.46;100.00;99951.67;1600994;88;21121;-69
2022/03/01 02:29:41;;;;;;;37.20;18.10;;;;;;;-0.47;100.00;99918.95;1622068;88;21104;-69
2022/03/01 02:32:09;;;;;;;36.23;18.03;;;;;;;-0.48;100.00;99917.28;1622210;88;21113;-69
2022/03/01 02:34:36;;;;;;;35.10;17.97;;;;;;;-0.48;100.00;99905.32;1622401;87;21123;-69
2022/03/01 02:37:04;;;;;;;34.93;17.30;;;;;;;-0.46;100.00;99891.91;1622207;88;21063;-70
2022/03/01 02:39:38;;;;;;;29.60;16.30;;;;;;;-0.47;100.00;99876.95;1601893;88;21055;-68
2022/03/01 02:42:05;;;;;;;31.07;15.37;;;;;;;-0.47;100.00;99852.55;1622293;87;21032;-68
2022/03/01 02:44:32;;;;;;;31.13;15.43;;;;;;;-0.47;100.00;99825.98;1600976;88;21047;-69
2022/03/01 02:46:59;;;;;;;31.20;15.70;;;;;;;-0.45;100.00;99819.24;1600862;88;21095;-70
2022/03/01 02:49:26;;;;;;;28.07;14.97;;;;;;;-0.44;100.00;99801.88;1622346;87;21107;-70
2022/03/01 02:51:53;;;;;;;28.17;14.80;;;;;;;-0.42;100.00;99789.33;1600923;88;21035;-69
2022/03/01 02:54:20;;;;;;;27.00;14.83;;;;;;;-0.42;100.00;99769.41;1601006;88;21044;-69
2022/03/01 02:56:47;;;;;;;29.20;15.00;;;;;;;-0.43;100.00;99751.75;1600847;88;21075;-69
2022/03/01 02:59:14;;;;;;;30.73;15.37;;;;;;;-0.43;100.00;99742.94;1600653;88;21083;-69
2022/03/01 03:01:41;;;;;;;28.30;14.23;;;;;;;-0.43;100.00;99720.36;1622204;88;21608;-68
2022/03/01 03:04:08;;;;;;;26.00;13.40;;;;;;;-0.43;100.00;99715.05;1622182;88;21549;-69
2022/03/01 03:06:36;;;;;;;28.60;14.40;;;;;;;-0.42;100.00;99704.81;1622212;88;21084;-69
2022/03/01 03:09:02;;;;;;;28.10;14.47;;;;;;;-0.41;100.00;99690.09;1622173;88;21104;-69
2022/03/01 03:11:31;;;;;;;26.73;13.67;;;;;;;-0.40;100.00;99681.14;1622219;88;21047;-69
2022/03/01 03:13:59;;;;;;;25.83;13.60;;;;;;;-0.39;100.00;99665.59;1600940;88;21101;-70
2022/03/01 03:16:27;;;;;;;26.53;13.60;;;;;;;-0.37;100.00;99643.36;1600873;88;21122;-68
2022/03/01 03:18:55;;;;;;;24.10;12.50;;;;;;;-0.37;100.00;99634.93;1634374;87;21163;-69
2022/03/01 03:21:22;;;;;;;25.60;12.87;;;;;;;-0.36;100.00;99623.33;1642695;87;21093;-68
2022/03/01 03:23:50;;;;;;;27.43;13.37;;;;;;;-0.36;100.00;99626.47;1642619;86;21119;-69
2022/03/01 03:26:17;;;;;;;25.87;13.67;;;;;;;-0.37;100.00;99626.09;1631394;87;21051;-68
2022/03/01 03:28:44;;;;;;;25.60;13.10;;;;;;;-0.35;100.00;99619.72;1631420;87;21104;-68
2022/03/01 03:31:12;;;;;;;24.97;13.17;;;;;;;-0.32;100.00;99612.86;1631396;87;21151;-70
2022/03/01 03:33:41;;;;;;;24.63;12.53;;;;;;;-0.31;100.00;99604.41;1631667;87;21591;-70
2022/03/01 03:36:08;;;;;;;26.73;13.80;;;;;;;-0.34;100.00;99593.99;1642360;87;21552;-69
2022/03/01 03:38:35;;;;;;;24.03;12.40;;;;;;;-0.33;100.00;99592.56;1642518;86;21107;-68
2022/03/01 03:41:09;;;;;;;25.03;13.10;;;;;;;-0.31;100.00;99585.81;1631430;87;21555;-69
2022/03/01 03:43:36;;;;;;;24.67;12.17;;;;;;;-0.31;100.00;99579.16;1631251;87;21107;-68
2022/03/01 03:46:03;;;;;;;22.73;12.40;;;;;;;-0.29;100.00;99563.95;1631107;87;21103;-69
2022/03/01 03:48:30;;;;;;;25.77;12.47;;;;;;;-0.29;100.00;99546.19;1642433;86;21056;-70
2022/03/01 03:50:58;;;;;;;27.10;12.83;;;;;;;-0.28;100.00;99547.06;1642509;87;21127;-68
2022/03/01 03:53:25;;;;;;;23.80;11.83;;;;;;;-0.29;100.00;99539.55;1642587;86;21024;-69
2022/03/01 03:55:52;;;;;;;24.57;12.67;;;;;;;-0.29;100.00;99538.22;1632926;86;21024;-67
2022/03/01 03:58:19;;;;;;;25.73;12.83;;;;;;;-0.28;100.00;99535.95;1643751;86;21105;-68
2022/03/01 04:00:46;;;;;;;23.83;12.37;;;;;;;-0.28;100.00;99527.14;1642653;87;21572;-69
2022/03/01 04:03:13;;;;;;;23.20;11.30;;;;;;;-0.27;100.00;99532.31;1631420;87;21087;-69
2022/03/01 04:05:40;;;;;;;23.80;12.03;;;;;;;-0.27;100.00;99526.16;1642656;86;21498;-70
2022/03/01 04:08:07;;;;;;;23.20;11.67;;;;;;;-0.26;100.00;99531.85;1631148;87;21052;-69
2022/03/01 04:10:34;;;;;;;24.27;11.70;;;;;;;-0.24;100.00;99525.45;1642955;86;21048;-69
2022/03/01 04:13:01;;;;;;;23.57;11.67;;;;;;;-0.23;100.00;99520.51;1642413;86;21052;-69
2022/03/01 04:15:28;;;;;;;23.60;12.00;;;;;;;-0.23;100.00;99478.45;1642715;86;21027;-68
2022/03/01 04:17:56;;;;;;;24.03;11.53;;;;;;;-0.24;100.00;99466.16;1610379;87;21497;-69
2022/03/01 04:20:24;;;;;;;27.20;12.33;;;;;;;-0.24;100.00;99455.52;1642612;86;21043;-68
2022/03/01 04:22:51;;;;;;;25.23;12.23;;;;;;;-0.22;100.00;99450.94;1642260;87;21020;-69
2022/03/01 04:25:17;;;;;;;22.90;10.57;;;;;;;-0.23;100.00;99456.73;1631841;87;21028;-68
2022/03/01 04:27:44;;;;;;;22.90;11.00;;;;;;;-0.20;100.00;99459.63;1631250;87;21066;-69
2022/03/01 04:30:12;;;;;;;23.80;11.23;;;;;;;-0.18;100.00;99427.63;1631398;87;21044;-69
2022/03/01 04:32:43;;;;;;;23.33;11.07;;;;;;;-0.20;100.00;99419.28;1631351;87;21087;-70
2022/03/01 04:35:10;;;;;;;22.27;10.20;;;;;;;-0.20;100.00;99413.13;1642479;86;21636;-69
2022/03/01 04:37:40;;;;;;;24.17;11.40;;;;;;;-0.21;100.00;99408.30;1642393;87;21074;-68
2022/03/01 04:40:08;;;;;;;22.87;11.57;;;;;;;-0.20;100.00;99402.50;1642572;87;21011;-68
2022/03/01 04:42:36;;;;;;;22.77;11.60;;;;;;;-0.18;100.00;99375.81;1631392;87;21056;-69
2022/03/01 04:45:05;;;;;;;20.93;11.20;;;;;;;-0.18;100.00;99330.15;1642653;87;21048;-69
2022/03/01 04:47:33;;;;;;;25.77;12.40;;;;;;;-0.18;100.00;99331.48;1631461;87;21107;-69
2022/03/01 04:50:00;;;;;;;22.37;11.70;;;;;;;-0.18;100.00;99327.98;1642482;86;21087;-69
2022/03/01 04:52:27;;;;;;;24.50;11.03;;;;;;;-0.19;100.00;99329.80;1642532;87;21525;-70
2022/03/01 04:54:54;;;;;;;22.23;10.87;;;;;;;-0.19;100.00;99332.46;1642785;87;21028;-69
2022/03/01 04:57:21;;;;;;;22.00;10.80;;;;;;;-0.23;100.00;99337.17;1642826;86;21095;-69
2022/03/01 04:59:48;;;;;;;22.80;11.07;;;;;;;-0.23;100.00;99341.61;1642708;87;21052;-68
2022/03/01 05:02:15;;;;;;;24.13;10.97;;;;;;;-0.24;100.00;99345.25;1631224;87;21048;-70
2022/03/01 05:04:42;;;;;;;21.97;10.13;;;;;;;-0.24;100.00;99343.92;1642640;87;21028;-69
2022/03/01 05:07:09;;;;;;;21.37;10.47;;;;;;;-0.24;100.00;99351.41;1642272;86;21131;-70
2022/03/01 05:09:36;;;;;;;20.87;10.10;;;;;;;-0.23;100.00;99349.58;1642561;86;21547;-70
2022/03/01 05:12:04;;;;;;;21.47;10.10;;;;;;;-0.21;100.00;99349.84;1631392;87;21036;-71
2022/03/01 05:14:31;;;;;;;19.40;9.43;;;;;;;-0.20;100.00;99340.05;1642613;86;21054;-69
2022/03/01 05:16:57;;;;;;;21.23;10.07;;;;;;;-0.18;100.00;99346.09;1631501;87;21516;-70
2022/03/01 05:19:25;;;;;;;20.87;9.70;;;;;;;-0.18;100.00;99343.92;1642519;86;21052;-70
2022/03/01 05:21:54;;;;;;;19.93;9.00;;;;;;;-0.16;100.00;99336.67;1642336;87;21064;-69
2022/03/01 05:24:21;;;;;;;18.53;8.70;;;;;;;-0.16;100.00;99334.88;1642446;87;21028;-69
2022/03/01 05:26:50;;;;;;;18.07;7.70;;;;;;;-0.15;100.00;99344.53;1642568;86;21099;-71
2022/03/01 05:29:17;;;;;;;16.83;7.43;;;;;;;-0.14;100.00;99336.06;1642326;87;21088;-70
2022/03/01 05:31:44;;;;;;;20.63;9.60;;;;;;;-0.13;100.00;99335.95;1630625;87;21081;-71
2022/03/01 05:34:11;;;;;;;21.17;10.50;;;;;;;-0.11;100.00;99341.15;1642603;86;21077;-70
2022/03/01 05:36:38;;;;;;;19.30;9.40;;;;;;;-0.10;100.00;99345.02;1631218;87;21083;-71
2022/03/01 05:39:05;;;;;;;18.07;8.07;;;;;;;-0.07;100.00;99345.25;1630697;87;21120;-70
2022/03/01 05:41:32;;;;;;;17.47;8.73;;;;;;;-0.06;100.00;99347.79;1610993;87;21120;-70
2022/03/01 05:43:59;;;;;;;18.07;8.67;;;;;;;-0.05;100.00;99343.34;1599997;87;21092;-69
2022/03/01 05:46:27;;;;;;;21.70;10.63;;;;;;;-0.05;100.00;99340.20;1608248;88;21068;-70
2022/03/01 05:48:54;;;;;;;22.67;11.13;;;;;;;-0.03;100.00;99350.22;1612767;89;21079;-69
2022/03/01 05:51:21;;;;;;;20.63;9.73;;;;;;;0.00;100.00;99345.16;1647942;85;21050;-69
2022/03/01 05:53:49;;;;;;;19.23;9.63;;;;;;;0.03;100.00;99351.54;1657417;87;21054;-69
2022/03/01 05:56:17;;;;;;;16.93;8.33;;;;;;;0.05;100.00;99355.41;1657267;87;21047;-69
2022/03/01 05:58:52;;;;;;;16.70;7.20;;;;;;;0.07;100.00;99356.13;1657221;87;21114;-70
2022/03/01 06:01:19;;;;;;;16.20;7.53;;;;;;;0.08;100.00;99368.47;1657417;87;21524;-70
2022/03/01 06:03:46;;;;;;;14.67;7.03;;;;;;;0.10;100.00;99370.52;1638535;87;21090;-69
2022/03/01 06:06:13;;;;;;;14.90;7.30;;;;;;;0.10;100.00;99372.69;1657364;87;21043;-69
2022/03/01 06:08:41;;;;;;;14.13;7.20;;;;;;;0.11;100.00;99378.38;1657313;87;21079;-69
2022/03/01 06:11:08;;;;;;;18.07;7.77;;;;;;;0.12;100.00;99381.88;1657539;87;21583;-68
2022/03/01 06:13:37;;;;;;;17.17;7.83;;;;;;;0.10;100.00;99386.47;1657745;87;21043;-69
2022/03/01 06:16:06;;;;;;;17.90;7.97;;;;;;;0.12;100.00;99389.36;1639086;87;21094;-70
2022/03/01 06:18:34;;;;;;;18.00;9.03;;;;;;;0.14;100.00;99394.09;1657641;87;21093;-70
2022/03/01 06:21:01;;;;;;;17.80;8.10;;;;;;;0.16;100.00;99397.48;1617219;87;21051;-71
2022/03/01 06:23:30;;;;;;;18.60;9.43;;;;;;;0.15;100.00;99401.09;1638532;87;21122;-71
2022/03/01 06:25:59;;;;;;;20.47;9.93;;;;;;;0.13;100.00;99410.16;1657359;87;21512;-71
2022/03/01 06:28:28;;;;;;;19.70;9.23;;;;;;;0.08;100.00;99413.66;1616758;87;21054;-70
2022/03/01 06:30:55;;;;;;;19.73;9.70;;;;;;;0.07;100.00;99412.83;1657275;87;21047;-69
2022/03/01 06:33:23;;;;;;;20.37;10.37;;;;;;;0.06;100.00;99414.27;1657421;87;21043;-70
2022/03/01 06:35:50;;;;;;;17.23;8.73;;;;;;;0.06;100.00;99415.60;1657186;87;21566;-68
2022/03/01 06:38:17;;;;;;;21.27;9.77;;;;;;;0.08;100.00;99426.95;1657954;86;21114;-69
2022/03/01 06:40:45;;;;;;;17.87;9.30;;;;;;;0.08;100.00;99426.46;1661654;85;21531;-69
2022/03/01 06:43:11;;;;;;;19.77;9.70;;;;;;;0.10;100.00;99420.54;1656392;85;21088;-71
2022/03/01 06:45:39;;;;;;;19.73;9.77;;;;;;;0.10;100.00;99425.86;1684695;85;21113;-70
2022/03/01 06:48:06;;;;;;;19.87;9.87;;;;;;;0.11;100.00;99433.38;1684807;84;21064;-70
2022/03/01 06:50:41;;;;;;;17.60;8.97;;;;;;;0.06;100.00;99436.37;1666980;85;21030;-68
2022/03/01 06:53:08;;;;;;;18.53;9.03;;;;;;;0.05;100.00;99438.66;1662793;84;21039;-67
2022/03/01 06:55:35;;;;;;;19.13;9.03;;;;;;;0.03;100.00;99429.13;1634642;86;21062;-68
2022/03/01 06:58:03;;;;;;;19.20;9.57;;;;;;;0.02;100.00;99436.26;1635542;86;21028;-70
2022/03/01 07:00:30;;;;;;;18.83;9.50;;;;;;;0.01;100.00;99430.56;1649540;86;21105;-70
2022/03/01 07:02:57;;;;;;;21.13;10.20;;;;;;;0.05;100.00;99428.52;1635760;86;21095;-69
2022/03/01 07:05:24;;;;;;;20.27;10.23;;;;;;;0.08;100.00;99429.13;1635151;86;21105;-68
2022/03/01 07:07:51;;;;;;;18.60;9.60;;;;;;;0.12;100.00;99423.08;1650101;86;21008;-69
2022/03/01 07:10:19;;;;;;;17.40;8.87;;;;;;;0.14;100.00;99420.69;1650034;85;21550;-69
2022/03/01 07:12:46;;;;;;;19.57;10.30;;;;;;;0.15;100.00;99418.86;1651292;86;21063;-66
2022/03/01 07:15:13;;;;;;;21.27;10.50;;;;;;;0.12;100.00;99414.61;1653167;86;21010;-68
2022/03/01 07:17:40;;;;;;;21.73;10.50;;;;;;;0.12;100.00;99422.59;1658819;85;21066;-69
2022/03/01 07:20:09;;;;;;;19.30;9.43;;;;;;;0.10;100.00;99411.73;1658123;85;21526;-69
2022/03/01 07:22:36;;;;;;;19.70;9.60;;;;;;;0.08;100.00;99414.50;1651530;86;20999;-67
2022/03/01 07:25:04;;;;;;;17.67;8.30;;;;;;;0.08;100.00;99416.32;1638817;86;21495;-70
2022/03/01 07:27:31;;;;;;;17.17;8.70;;;;;;;0.07;100.00;99412.83;1640377;86;21095;-68
2022/03/01 07:29:59;;;;;;;19.83;9.03;;;;;;;0.05;100.00;99407.25;1658811;85;21042;-69
2022/03/01 07:32:27;;;;;;;24.10;12.87;;;;;;;0.04;100.00;99414.39;1640333;86;21062;-68
2022/03/01 07:34:54;;;;;;;27.90;16.50;;;;;;;0.04;100.00;99414.39;1639983;86;21094;-69
2022/03/01 07:37:21;;;;;;;27.67;14.30;;;;;;;0.07;100.00;99411.95;1640084;85;21105;-69
2022/03/01 07:39:50;;;;;;;29.77;16.33;;;;;;;0.11;100.00;99412.94;1658882;85;21094;-70
2022/03/01 07:42:18;;;;;;;25.50;13.60;;;;;;;0.15;100.00;99418.86;1658767;86;21046;-68
2022/03/01 07:44:45;;;;;;;23.37;11.53;;;;;;;0.19;100.00;99409.67;1659777;86;21090;-68
2022/03/01 07:47:12;;;;;;;20.73;9.77;;;;;;;0.25;100.00;99406.55;1659473;86;21074;-67
2022/03/01 07:49:40;;;;;;;19.03;9.80;;;;;;;0.29;100.00;99408.48;1658873;86;21534;-69
2022/03/01 07:52:07;;;;;;;17.43;8.50;;;;;;;0.29;100.00;99392.52;1658878;86;21031;-70
2022/03/01 07:54:34;;;;;;;19.90;9.33;;;;;;;0.33;100.00;99392.63;1658669;85;21066;-70
2022/03/01 07:57:03;;;;;;;17.43;9.17;;;;;;;0.35;100.00;99392.89;1656509;85;21105;-70
2022/03/01 07:59:30;;;;;;;17.67;9.27;;;;;;;0.37;100.00;99389.63;1638634;85;21049;-69
2022/03/01 08:01:57;;;;;;;17.47;8.70;;;;;;;0.39;100.00;99384.19;1669807;84;21050;-69
2022/03/01 08:04:25;;;;;;;18.37;8.83;;;;;;;0.41;100.00;99388.02;1654425;86;21087;-68
2022/03/01 08:06:52;;;;;;;16.27;7.33;;;;;;;0.44;100.00;99381.14;1639024;86;21071;-69
2022/03/01 08:09:19;;;;;;;19.87;8.83;;;;;;;0.46;100.00;99377.86;1660258;86;21029;-70
2022/03/01 08:11:46;;;;;;;16.97;8.33;;;;;;;0.46;100.00;99376.08;1640490;86;21076;-70
2022/03/01 08:14:14;;;;;;;16.80;8.27;;;;;;;0.47;100.00;99377.75;1661312;86;21072;-69
2022/03/01 08:16:41;;;;;;;19.00;9.90;;;;;;;0.49;100.00;99383.78;1660724;86;21008;-68
2022/03/01 08:19:07;;;;;;;17.63;9.07;;;;;;;0.52;100.00;99384.04;1654067;86;21028;-69
2022/03/01 08:21:34;;;;;;;19.43;8.97;;;;;;;0.52;100.00;99378.72;1627205;86;21027;-69
2022/03/01 08:24:01;;;;;;;18.80;9.67;;;;;;;0.51;100.00;99377.02;1653232;86;21002;-70
2022/03/01 08:26:28;;;;;;;18.93;9.30;;;;;;;0.53;100.00;99385.25;1660290;85;21052;-69
2022/03/01 08:28:55;;;;;;;17.67;8.57;;;;;;;0.54;100.00;99384.76;1660781;85;21083;-68
2022/03/01 08:31:22;;;;;;;20.10;9.47;;;;;;;0.55;100.00;99387.80;1637499;87;21074;-70
2022/03/01 08:33:49;;;;;;;16.63;7.97;;;;;;;0.55;100.00;99395.28;1640660;86;21078;-70
2022/03/01 08:36:16;;;;;;;17.43;9.37;;;;;;;0.56;100.00;99386.80;1676827;85;21101;-69
2022/03/01 08:38:44;;;;;;;21.50;11.10;;;;;;;0.55;100.00;99385.97;1652217;86;21049;-70
2022/03/01 08:41:11;;;;;;;20.40;10.53;;;;;;;0.56;100.00;99388.14;1635448;86;21533;-69
2022/03/01 08:43:39;;;;;;;17.70;8.83;;;;;;;0.58;100.00;99395.51;1652649;86;21007;-70
2022/03/01 08:46:07;;;;;;;17.40;8.80;;;;;;;0.58;100.00;99402.16;1654859;85;21070;-69
2022/03/01 08:48:34;;;;;;;21.27;11.23;;;;;;;0.60;100.00;99399.37;1636431;86;20982;-69
2022/03/01 08:51:01;;;;;;;19.00;10.33;;;;;;;0.60;100.00;99409.53;1637633;86;20981;-70
2022/03/01 08:53:28;;;;;;;18.60;10.27;;;;;;;0.63;100.00;99406.63;1656456;87;21546;-70
2022/03/01 08:55:55;;;;;;;18.83;9.80;;;;;;;0.67;100.00;99407.23;1666435;86;21052;-70
2022/03/01 08:58:22;;;;;;;18.37;9.30;;;;;;;0.71;100.00;99409.53;1630621;87;22014;-69
2022/03/01 09:00:51;;;;;;;15.70;7.93;;;;;;;0.75;100.00;99409.63;1631519;86;21049;-70
2022/03/01 09:03:18;;;;;;;16.47;8.13;;;;;;;0.78;100.00;99399.70;1634840;86;21475;-69
2022/03/01 09:05:45;;;;;;;18.00;9.53;;;;;;;0.77;100.00;99410.01;1632933;87;21090;-68
2022/03/01 09:08:14;;;;;;;16.63;8.10;;;;;;;0.79;100.00;99414.72;1651463;87;21101;-69
2022/03/01 09:10:41;;;;;;;16.77;8.33;;;;;;;0.80;100.00;99405.74;1626836;87;21033;-70
2022/03/01 09:13:08;;;;;;;19.93;10.00;;;;;;;0.80;100.00;99399.96;1599733;88;21044;-71
2022/03/01 09:15:44;;;;;;;20.00;10.55;;;;;;;0.83;100.00;99409.00;1613175;86;21064;-71
2022/03/01 09:18:11;;;;;;;18.37;9.13;;;;;;;0.84;100.00;99404.55;1629732;85;21115;-70
2022/03/01 09:20:38;;;;;;;18.13;9.20;;;;;;;0.85;100.00;99403.09;1629164;85;21036;-70
2022/03/01 09:23:05;;;;;;;16.57;8.63;;;;;;;0.89;100.00;99399.70;1624903;85;21041;-70
2022/03/01 09:25:32;;;;;;;17.30;8.43;;;;;;;0.91;100.00;99409.23;1644103;85;21073;-68
2022/03/01 09:28:00;;;;;;;17.07;8.40;;;;;;;0.94;100.00;99401.01;1657839;85;21072;-69
2022/03/01 09:30:27;;;;;;;20.13;9.13;;;;;;;1.00;100.00;99400.16;1664300;85;21037;-70
2022/03/01 09:32:54;;;;;;;18.80;9.63;;;;;;;1.02;100.00;99397.70;1664924;85;21043;-69
2022/03/01 09:35:21;;;;;;;18.13;9.00;;;;;;;1.08;100.00;99396.35;1662719;85;21072;-70
2022/03/01 09:37:49;;;;;;;25.40;14.57;;;;;;;1.13;100.00;99391.50;1663085;85;21097;-69
2022/03/01 09:40:16;;;;;;;22.03;11.47;;;;;;;1.16;100.00;99391.25;1647222;85;21061;-68
2022/03/01 09:42:43;;;;;;;19.17;11.00;;;;;;;1.19;100.00;99394.13;1689609;84;21072;-70
2022/03/01 09:45:23;;;;;;;18.83;9.93;;;;;;;1.21;100.00;99393.05;1694522;84;21074;-70
2022/03/01 09:47:52;;;;;;;20.57;10.43;;;;;;;1.27;100.00;99389.86;1668132;85;21514;-70
2022/03/01 09:50:27;;;;;;;19.73;10.60;;;;;;;1.32;100.00;99398.32;1665187;85;21009;-70
2022/03/01 09:52:48;;;;;;;18.63;10.13;;;;;;;1.32;100.00;99392.16;1643378;85;21023;-70
2022/03/01 09:55:15;;;;;;;20.53;10.50;;;;;;;1.30;100.00;99395.44;1623853;87;21062;-70
2022/03/01 09:57:48;;;;;;;19.13;10.33;;;;;;;1.28;100.00;99392.90;1595391;87;21062;-71
2022/03/01 10:00:16;;;;;;;17.77;9.20;;;;;;;1.29;100.00;99405.26;1641661;86;21088;-71
2022/03/01 10:02:43;;;;;;;18.90;9.73;;;;;;;1.27;100.00;99398.34;1633057;86;21562;-70
2022/03/01 10:05:13;;;;;;;20.70;10.13;;;;;;;1.25;100.00;99397.14;1653374;86;21078;-70
2022/03/01 10:07:44;;;;;;;20.13;10.50;;;;;;;1.23;100.00;99402.25;1641939;85;21071;-70
2022/03/01 10:10:17;;;;;;;20.40;10.13;;;;;;;1.20;100.00;99401.16;1642884;85;21076;-70
2022/03/01 10:12:46;;;;;;;18.43;9.63;;;;;;;1.18;100.00;99405.78;1653634;85;21098;-69
2022/03/01 10:15:15;;;;;;;20.93;10.00;;;;;;;1.17;100.00;99409.40;1641042;86;21050;-71
2022/03/01 10:17:44;;;;;;;20.67;9.70;;;;;;;1.14;100.00;99414.51;1633926;85;21035;-70
2022/03/01 10:20:15;;;;;;;18.83;9.80;;;;;;;1.13;100.00;99419.45;1655850;84;21514;-70
2022/03/01 10:22:51;;;;;;;20.10;10.60;;;;;;;1.11;100.00;99419.58;1625792;87;21568;-73
2022/03/01 10:25:29;;;;;;;19.27;10.47;;;;;;;1.12;100.00;99419.95;1624054;87;21095;-73
2022/03/01 10:27:57;;;;;;;20.87;10.57;;;;;;;1.14;100.00;99431.32;1624727;87;21067;-70
2022/03/01 10:30:29;;;;;;;19.43;10.30;;;;;;;1.19;100.00;99424.76;1630894;87;21038;-72
2022/03/01 10:33:13;;;;;;;19.32;9.90;;;;;;;1.22;100.00;99429.37;1633044;86;21030;-71
2022/03/01 10:35:41;;;;;;;;;;;;;;;1.23;100.00;99437.71;1623536;86;21096;-70
2022/03/01 10:38:10;;;;;;;20.47;10.17;;;;;;;1.25;100.00;99429.59;1635154;86;20187;-70
2022/03/01 10:40:39;;;;;;;21.30;10.93;;;;;;;1.27;100.00;99434.30;1633755;86;21070;-70
2022/03/01 10:43:12;;;;;;;18.60;9.90;;;;;;;1.27;100.00;99431.15;1624017;87;21057;-68
2022/03/01 10:45:44;;;;;;;;;;;;;;;1.28;100.00;99440.01;1560061;90;21108;-70
2022/03/01 10:48:15;;;;;;;19.73;10.03;;;;;;;1.29;100.00;99426.56;1556904;91;20178;-70
2022/03/01 10:50:42;;;;;;;20.43;10.63;;;;;;;1.28;100.00;99427.52;1542515;91;21563;-71
2022/03/01 10:53:11;;;;;;;20.53;10.90;;;;;;;1.26;100.00;99436.13;1540340;91;21144;-71
2022/03/01 10:55:41;;;;;;;21.20;11.00;;;;;;;1.26;100.00;99436.63;1558445;91;21046;-71
2022/03/01 10:58:10;;;;;;;22.63;11.70;;;;;;;1.23;100.00;99444.37;1555091;90;21687;-70
2022/03/01 11:00:37;;;;;;;20.30;10.43;;;;;;;1.22;100.00;99436.50;1545787;92;21220;-71
2022/03/01 11:03:07;;;;;;;20.20;10.40;;;;;;;1.20;100.00;99432.62;1512004;92;21219;-70
2022/03/01 11:05:35;;;;;;;21.87;11.37;;;;;;;1.20;100.00;99439.28;1534238;92;21540;-72
2022/03/01 11:08:08;;;;;;;22.70;11.73;;;;;;;1.22;100.00;99432.05;1511020;93;21108;-69
2022/03/01 11:10:38;;;;;;;21.50;11.53;;;;;;;1.22;100.00;99426.72;1545111;90;21089;-71
2022/03/01 11:13:06;;;;;;;25.73;14.97;;;;;;;1.23;100.00;99434.21;1566012;89;21545;-73
2022/03/01 11:15:58;;;;;;;25.00;13.73;;;;;;;1.22;100.00;99435.17;1584868;89;21091;-71
2022/03/01 11:18:39;;;;;;;25.47;14.80;;;;;;;1.23;100.00;99431.55;1585222;89;21055;-71